PWSweather.com
Personal Weather Stations
Station Observations
REBOX73
Petalia At Mount Pantokrator, CorfuGR 49081

Petalia At Mount PantokratorCorfuGR 49081

Lat: 39.747915, Lon: 19.841466

Elevation: 2132

Station Type: ws1080

http://pantokratoras-kerkyra.meteoclub.gr/

Latest ConditionsUpdated 8:15:01 PM GMT+01:01 Saturday, May 26, 2018
Currently Today's Max Today's Min Today's Average
Temperature 69.6°F20.9°C 76.5°F24.7°C 59.5°F15.3°C 69.3°F20.7°C
Dew Point 56.9°F13.8°C 64.8°F18.2°C 52.6°F11.4°C 56.8°F13.8°C
Winds 3.0 mph ESE4.8 kmh ESE 4.0 mph ESE6.4 kmh ESE - 1.8 mph 2.9 kmh
Wind Gusts 5.0 mph8.0 kmh 10.0 mph16.1 kmh - -
Humidity 64% 83% 48% 65%
Pressure 30.08 in1018.6 mb 30.09 in1019.0 mb 30.02 in1016.6 mb -
Hour Temp Dew Point Humidity Winds Wind Gusts Pressure Precip Precip Rate Daily Precip Total
08:15 PM 69.6°F20.9°C 56.9°F13.8°C 64% 3.0 mph ESE4.8 kmh ESE 5.0 mph8.0 kmh 30.08 in1018.6 mb 0.00 in0.0 mm 0.00 in0.0 mm 0.00 in0.0 mm
08:00 PM 69.3°F20.7°C 59.1°F15.1°C 70% 2.0 mph E3.2 kmh E 4.0 mph6.4 kmh 30.08 in1018.6 mb 0.00 in0.0 mm 0.00 in0.0 mm 0.00 in0.0 mm
07:45 PM 69.1°F20.6°C 58.9°F14.9°C 70% 1.0 mph E1.6 kmh E 4.0 mph6.4 kmh 30.07 in1018.3 mb 0.00 in0.0 mm 0.00 in0.0 mm 0.00 in0.0 mm
07:30 PM 68.7°F20.4°C 58.1°F14.5°C 69% 1.0 mph E1.6 kmh E 3.0 mph4.8 kmh 30.07 in1018.3 mb 0.00 in0.0 mm 0.00 in0.0 mm 0.00 in0.0 mm
07:15 PM 68.7°F20.4°C 58.1°F14.5°C 69% Calm Calm 2.0 mph3.2 kmh 30.07 in1018.3 mb 0.00 in0.0 mm 0.00 in0.0 mm 0.00 in0.0 mm
07:00 PM 69.1°F20.6°C 58.1°F14.5°C 68% 1.0 mph E1.6 kmh E 2.0 mph3.2 kmh 30.06 in1017.9 mb 0.00 in0.0 mm 0.00 in0.0 mm 0.00 in0.0 mm
06:45 PM 69.3°F20.7°C 56.1°F13.4°C 63% 1.0 mph E1.6 kmh E 2.0 mph3.2 kmh 30.07 in1018.3 mb 0.00 in0.0 mm 0.00 in0.0 mm 0.00 in0.0 mm
06:30 PM 69.6°F20.9°C 53.2°F11.8°C 56% 1.0 mph E1.6 kmh E 2.0 mph3.2 kmh 30.06 in1017.9 mb 0.00 in0.0 mm 0.00 in0.0 mm 0.00 in0.0 mm
06:15 PM 70.5°F21.4°C 54.1°F12.3°C 56% Calm Calm 2.0 mph3.2 kmh 30.06 in1017.9 mb 0.00 in0.0 mm 0.00 in0.0 mm 0.00 in0.0 mm
06:00 PM 72.9°F22.7°C 52.6°F11.4°C 49% Calm Calm 3.0 mph4.8 kmh 30.05 in1017.6 mb 0.00 in0.0 mm 0.00 in0.0 mm 0.00 in0.0 mm
05:45 PM 72.5°F22.5°C 55.9°F13.3°C 56% Calm Calm 1.0 mph1.6 kmh 30.06 in1017.9 mb 0.00 in0.0 mm 0.00 in0.0 mm 0.00 in0.0 mm
05:30 PM 71.1°F21.7°C 54.1°F12.3°C 55% Calm Calm 3.0 mph4.8 kmh 30.06 in1017.9 mb 0.00 in0.0 mm 0.00 in0.0 mm 0.00 in0.0 mm
05:15 PM 72.1°F22.3°C 53.5°F11.9°C 52% 1.0 mph NE1.6 kmh NE 6.0 mph9.7 kmh 30.06 in1017.9 mb 0.00 in0.0 mm 0.00 in0.0 mm 0.00 in0.0 mm
05:00 PM 74.1°F23.4°C 55.4°F13.0°C 52% 2.0 mph NW3.2 kmh NW 5.0 mph8.0 kmh 30.06 in1017.9 mb 0.00 in0.0 mm 0.00 in0.0 mm 0.00 in0.0 mm
04:45 PM 72.1°F22.3°C 56.1°F13.4°C 57% 3.0 mph NE4.8 kmh NE 8.0 mph12.9 kmh 30.06 in1017.9 mb 0.00 in0.0 mm 0.00 in0.0 mm 0.00 in0.0 mm
04:30 PM 72.1°F22.3°C 54.6°F12.6°C 54% 4.0 mph NE6.4 kmh NE 10.0 mph16.1 kmh 30.06 in1017.9 mb 0.00 in0.0 mm 0.00 in0.0 mm 0.00 in0.0 mm
04:15 PM 73.8°F23.2°C 57.1°F13.9°C 56% 2.0 mph NE3.2 kmh NE 7.0 mph11.3 kmh 30.06 in1017.9 mb 0.00 in0.0 mm 0.00 in0.0 mm 0.00 in0.0 mm
04:00 PM 74.5°F23.6°C 58.2°F14.6°C 57% 2.0 mph NW3.2 kmh NW 5.0 mph8.0 kmh 30.06 in1017.9 mb 0.00 in0.0 mm 0.00 in0.0 mm 0.00 in0.0 mm
03:45 PM 74.8°F23.8°C 58.6°F14.8°C 57% 1.0 mph N1.6 kmh N 4.0 mph6.4 kmh 30.06 in1017.9 mb 0.00 in0.0 mm 0.00 in0.0 mm 0.00 in0.0 mm
03:30 PM 74.5°F23.6°C 58.2°F14.6°C 57% 2.0 mph W3.2 kmh W 7.0 mph11.3 kmh 30.07 in1018.3 mb 0.00 in0.0 mm 0.00 in0.0 mm 0.00 in0.0 mm
03:15 PM 73.9°F23.3°C 56.8°F13.8°C 55% 3.0 mph W4.8 kmh W 8.0 mph12.9 kmh 30.06 in1017.9 mb 0.00 in0.0 mm 0.00 in0.0 mm 0.00 in0.0 mm
03:00 PM 73.9°F23.3°C 58.2°F14.6°C 58% 3.0 mph WNW4.8 kmh WNW 10.0 mph16.1 kmh 30.06 in1017.9 mb 0.00 in0.0 mm 0.00 in0.0 mm 0.00 in0.0 mm
02:45 PM 73.6°F23.1°C 60.2°F15.7°C 63% 2.0 mph WNW3.2 kmh WNW 8.0 mph12.9 kmh 30.07 in1018.3 mb 0.00 in0.0 mm 0.00 in0.0 mm 0.00 in0.0 mm
02:30 PM 74.8°F23.8°C 58.6°F14.8°C 57% 2.0 mph N3.2 kmh N 9.0 mph14.5 kmh 30.07 in1018.3 mb 0.00 in0.0 mm 0.00 in0.0 mm 0.00 in0.0 mm
02:15 PM 75.2°F24.0°C 56.9°F13.8°C 53% 3.0 mph NNW4.8 kmh NNW 8.0 mph12.9 kmh 30.07 in1018.3 mb 0.00 in0.0 mm 0.00 in0.0 mm 0.00 in0.0 mm
02:00 PM 74.7°F23.7°C 57.9°F14.4°C 56% 2.0 mph NNE3.2 kmh NNE 6.0 mph9.7 kmh 30.07 in1018.3 mb 0.00 in0.0 mm 0.00 in0.0 mm 0.00 in0.0 mm
01:45 PM 74.3°F23.5°C 59.5°F15.3°C 60% 3.0 mph N4.8 kmh N 6.0 mph9.7 kmh 30.07 in1018.3 mb 0.00 in0.0 mm 0.00 in0.0 mm 0.00 in0.0 mm
01:30 PM 74.3°F23.5°C 59.0°F15.0°C 59% 3.0 mph NNE4.8 kmh NNE 10.0 mph16.1 kmh 30.08 in1018.6 mb 0.00 in0.0 mm 0.00 in0.0 mm 0.00 in0.0 mm
01:15 PM 74.1°F23.4°C 55.9°F13.3°C 53% 4.0 mph NE6.4 kmh NE 7.0 mph11.3 kmh 30.08 in1018.6 mb 0.00 in0.0 mm 0.00 in0.0 mm 0.00 in0.0 mm
01:00 PM 74.7°F23.7°C 57.9°F14.4°C 56% 2.0 mph NE3.2 kmh NE 7.0 mph11.3 kmh 30.07 in1018.3 mb 0.00 in0.0 mm 0.00 in0.0 mm 0.00 in0.0 mm
12:45 PM 74.8°F23.8°C 56.6°F13.7°C 53% 2.0 mph NW3.2 kmh NW 6.0 mph9.7 kmh 30.08 in1018.6 mb 0.00 in0.0 mm 0.00 in0.0 mm 0.00 in0.0 mm
12:30 PM 75.0°F23.9°C 57.2°F14.0°C 54% 2.0 mph NW3.2 kmh NW 5.0 mph8.0 kmh 30.08 in1018.6 mb 0.00 in0.0 mm 0.00 in0.0 mm 0.00 in0.0 mm
12:15 PM 75.2°F24.0°C 54.2°F12.3°C 48% 2.0 mph N3.2 kmh N 6.0 mph9.7 kmh 30.09 in1019.0 mb 0.00 in0.0 mm 0.00 in0.0 mm 0.00 in0.0 mm
12:00 PM 75.4°F24.1°C 57.1°F13.9°C 53% 2.0 mph NW3.2 kmh NW 6.0 mph9.7 kmh 30.09 in1019.0 mb 0.00 in0.0 mm 0.00 in0.0 mm 0.00 in0.0 mm
11:45 AM 75.0°F23.9°C 57.8°F14.3°C 55% 2.0 mph NNW3.2 kmh NNW 5.0 mph8.0 kmh 30.09 in1019.0 mb 0.00 in0.0 mm 0.00 in0.0 mm 0.00 in0.0 mm
11:30 AM 75.7°F24.3°C 59.4°F15.2°C 57% 2.0 mph N3.2 kmh N 6.0 mph9.7 kmh 30.09 in1019.0 mb 0.00 in0.0 mm 0.00 in0.0 mm 0.00 in0.0 mm
11:15 AM 76.5°F24.7°C 59.6°F15.3°C 56% 1.0 mph E1.6 kmh E 4.0 mph6.4 kmh 30.09 in1019.0 mb 0.00 in0.0 mm 0.00 in0.0 mm 0.00 in0.0 mm
11:00 AM 75.7°F24.3°C 59.9°F15.5°C 58% 2.0 mph NE3.2 kmh NE 6.0 mph9.7 kmh 30.09 in1019.0 mb 0.00 in0.0 mm 0.00 in0.0 mm 0.00 in0.0 mm
10:45 AM 75.6°F24.2°C 59.7°F15.4°C 58% 2.0 mph NNE3.2 kmh NNE 7.0 mph11.3 kmh 30.09 in1019.0 mb 0.00 in0.0 mm 0.00 in0.0 mm 0.00 in0.0 mm
10:30 AM 74.7°F23.7°C 60.8°F16.0°C 62% 3.0 mph NW4.8 kmh NW 7.0 mph11.3 kmh 30.09 in1019.0 mb 0.00 in0.0 mm 0.00 in0.0 mm 0.00 in0.0 mm
10:15 AM 75.6°F24.2°C 56.2°F13.4°C 51% 2.0 mph N3.2 kmh N 5.0 mph8.0 kmh 30.09 in1019.0 mb 0.00 in0.0 mm 0.00 in0.0 mm 0.00 in0.0 mm
10:00 AM 74.8°F23.8°C 64.8°F18.2°C 71% 1.0 mph N1.6 kmh N 3.0 mph4.8 kmh 30.08 in1018.6 mb 0.00 in0.0 mm 0.00 in0.0 mm 0.00 in0.0 mm
09:45 AM 73.6°F23.1°C 63.6°F17.6°C 71% 2.0 mph WNW3.2 kmh WNW 7.0 mph11.3 kmh 30.08 in1018.6 mb 0.00 in0.0 mm 0.00 in0.0 mm 0.00 in0.0 mm
09:30 AM 73.8°F23.2°C 63.4°F17.4°C 70% 2.0 mph WNW3.2 kmh WNW 4.0 mph6.4 kmh 30.08 in1018.6 mb 0.00 in0.0 mm 0.00 in0.0 mm 0.00 in0.0 mm
09:15 AM 73.0°F22.8°C 63.1°F17.3°C 71% 2.0 mph WNW3.2 kmh WNW 5.0 mph8.0 kmh 30.08 in1018.6 mb 0.00 in0.0 mm 0.00 in0.0 mm 0.00 in0.0 mm
09:00 AM 73.4°F23.0°C 62.2°F16.8°C 68% 2.0 mph NW3.2 kmh NW 5.0 mph8.0 kmh 30.07 in1018.3 mb 0.00 in0.0 mm 0.00 in0.0 mm 0.00 in0.0 mm
08:45 AM 73.8°F23.2°C 60.4°F15.8°C 63% 1.0 mph NW1.6 kmh NW 2.0 mph3.2 kmh 30.08 in1018.6 mb 0.00 in0.0 mm 0.00 in0.0 mm 0.00 in0.0 mm
08:30 AM 72.7°F22.6°C 60.2°F15.7°C 65% 1.0 mph E1.6 kmh E 4.0 mph6.4 kmh 30.07 in1018.3 mb 0.00 in0.0 mm 0.00 in0.0 mm 0.00 in0.0 mm
08:15 AM 72.3°F22.4°C 54.2°F12.3°C 53% 1.0 mph NNW1.6 kmh NNW 4.0 mph6.4 kmh 30.08 in1018.6 mb 0.00 in0.0 mm 0.00 in0.0 mm 0.00 in0.0 mm
08:00 AM 71.8°F22.1°C 62.7°F17.1°C 73% Calm Calm 1.0 mph1.6 kmh 30.08 in1018.6 mb 0.00 in0.0 mm 0.00 in0.0 mm 0.00 in0.0 mm
07:45 AM 70.5°F21.4°C 59.9°F15.5°C 69% Calm Calm 2.0 mph3.2 kmh 30.08 in1018.6 mb 0.00 in0.0 mm 0.00 in0.0 mm 0.00 in0.0 mm
07:30 AM 68.9°F20.5°C 59.1°F15.1°C 71% Calm Calm 1.0 mph1.6 kmh 30.08 in1018.6 mb 0.00 in0.0 mm 0.00 in0.0 mm 0.00 in0.0 mm
07:15 AM 67.5°F19.7°C 58.1°F14.5°C 72% Calm Calm 2.0 mph3.2 kmh 30.07 in1018.3 mb 0.00 in0.0 mm 0.00 in0.0 mm 0.00 in0.0 mm
07:00 AM 66.0°F18.9°C 56.7°F13.7°C 72% 1.0 mph ESE1.6 kmh ESE 2.0 mph3.2 kmh 30.07 in1018.3 mb 0.00 in0.0 mm 0.00 in0.0 mm 0.00 in0.0 mm
06:45 AM 64.2°F17.9°C 56.1°F13.4°C 75% 1.0 mph ESE1.6 kmh ESE 2.0 mph3.2 kmh 30.07 in1018.3 mb 0.00 in0.0 mm 0.00 in0.0 mm 0.00 in0.0 mm
06:30 AM 62.2°F16.8°C 54.6°F12.6°C 76% 1.0 mph ESE1.6 kmh ESE 2.0 mph3.2 kmh 30.06 in1017.9 mb 0.00 in0.0 mm 0.00 in0.0 mm 0.00 in0.0 mm
06:15 AM 61.9°F16.6°C 55.3°F12.9°C 79% 1.0 mph ESE1.6 kmh ESE 2.0 mph3.2 kmh 30.06 in1017.9 mb 0.00 in0.0 mm 0.00 in0.0 mm 0.00 in0.0 mm
06:00 AM 61.2°F16.2°C 55.3°F12.9°C 81% 1.0 mph ESE1.6 kmh ESE 2.0 mph3.2 kmh 30.05 in1017.6 mb 0.00 in0.0 mm 0.00 in0.0 mm 0.00 in0.0 mm
05:45 AM 61.7°F16.5°C 54.8°F12.7°C 78% 1.0 mph ESE1.6 kmh ESE 2.0 mph3.2 kmh 30.05 in1017.6 mb 0.00 in0.0 mm 0.00 in0.0 mm 0.00 in0.0 mm
05:30 AM 61.7°F16.5°C 54.1°F12.3°C 76% 1.0 mph ESE1.6 kmh ESE 2.0 mph3.2 kmh 30.05 in1017.6 mb 0.00 in0.0 mm 0.00 in0.0 mm 0.00 in0.0 mm
05:15 AM 62.1°F16.7°C 54.4°F12.4°C 76% 1.0 mph ESE1.6 kmh ESE 4.0 mph6.4 kmh 30.05 in1017.6 mb 0.00 in0.0 mm 0.00 in0.0 mm 0.00 in0.0 mm
05:00 AM 61.9°F16.6°C 53.9°F12.2°C 75% 1.0 mph ESE1.6 kmh ESE 3.0 mph4.8 kmh 30.04 in1017.3 mb 0.00 in0.0 mm 0.00 in0.0 mm 0.00 in0.0 mm
04:45 AM 62.8°F17.1°C 55.1°F12.8°C 76% 1.0 mph SE1.6 kmh SE 3.0 mph4.8 kmh 30.04 in1017.3 mb 0.00 in0.0 mm 0.00 in0.0 mm 0.00 in0.0 mm
04:30 AM 61.5°F16.4°C 54.2°F12.3°C 77% 1.0 mph ESE1.6 kmh ESE 3.0 mph4.8 kmh 30.04 in1017.3 mb 0.00 in0.0 mm 0.00 in0.0 mm 0.00 in0.0 mm
04:15 AM 62.4°F16.9°C 54.4°F12.4°C 75% 1.0 mph ESE1.6 kmh ESE 3.0 mph4.8 kmh 30.03 in1016.9 mb 0.00 in0.0 mm 0.00 in0.0 mm 0.00 in0.0 mm
04:00 AM 63.7°F17.6°C 54.1°F12.3°C 71% 3.0 mph ESE4.8 kmh ESE 4.0 mph6.4 kmh 30.03 in1016.9 mb 0.00 in0.0 mm 0.00 in0.0 mm 0.00 in0.0 mm
03:45 AM 63.9°F17.7°C 54.3°F12.4°C 71% 4.0 mph ESE6.4 kmh ESE 5.0 mph8.0 kmh 30.03 in1016.9 mb 0.00 in0.0 mm 0.00 in0.0 mm 0.00 in0.0 mm
03:30 AM 64.6°F18.1°C 54.2°F12.3°C 69% 3.0 mph ESE4.8 kmh ESE 5.0 mph8.0 kmh 30.02 in1016.6 mb 0.00 in0.0 mm 0.00 in0.0 mm 0.00 in0.0 mm
03:15 AM 64.0°F17.8°C 54.1°F12.3°C 70% 2.0 mph ESE3.2 kmh ESE 4.0 mph6.4 kmh 30.02 in1016.6 mb 0.00 in0.0 mm 0.00 in0.0 mm 0.00 in0.0 mm
03:00 AM 63.3°F17.4°C 54.5°F12.5°C 73% 3.0 mph E4.8 kmh E 6.0 mph9.7 kmh 30.03 in1016.9 mb 0.00 in0.0 mm 0.00 in0.0 mm 0.00 in0.0 mm
02:45 AM 63.7°F17.6°C 54.1°F12.3°C 71% 2.0 mph ESE3.2 kmh ESE 5.0 mph8.0 kmh 30.03 in1016.9 mb 0.00 in0.0 mm 0.00 in0.0 mm 0.00 in0.0 mm
02:30 AM 64.9°F18.3°C 54.5°F12.5°C 69% 3.0 mph SE4.8 kmh SE 5.0 mph8.0 kmh 30.03 in1016.9 mb 0.00 in0.0 mm 0.00 in0.0 mm 0.00 in0.0 mm
02:15 AM 64.9°F18.3°C 54.5°F12.5°C 69% 4.0 mph ESE6.4 kmh ESE 8.0 mph12.9 kmh 30.03 in1016.9 mb 0.00 in0.0 mm 0.00 in0.0 mm 0.00 in0.0 mm
02:00 AM 63.7°F17.6°C 54.5°F12.5°C 72% 3.0 mph E4.8 kmh E 5.0 mph8.0 kmh 30.03 in1016.9 mb 0.00 in0.0 mm 0.00 in0.0 mm 0.00 in0.0 mm
01:45 AM 63.1°F17.3°C 54.3°F12.4°C 73% 3.0 mph ESE4.8 kmh ESE 5.0 mph8.0 kmh 30.02 in1016.6 mb 0.00 in0.0 mm 0.00 in0.0 mm 0.00 in0.0 mm
01:30 AM 63.0°F17.2°C 54.2°F12.3°C 73% 2.0 mph SE3.2 kmh SE 5.0 mph8.0 kmh 30.02 in1016.6 mb 0.00 in0.0 mm 0.00 in0.0 mm 0.00 in0.0 mm
01:15 AM 62.8°F17.1°C 54.4°F12.4°C 74% 2.0 mph ESE3.2 kmh ESE 5.0 mph8.0 kmh 30.02 in1016.6 mb 0.00 in0.0 mm 0.00 in0.0 mm 0.00 in0.0 mm
01:00 AM 61.7°F16.5°C 54.1°F12.3°C 76% 3.0 mph ESE4.8 kmh ESE 4.0 mph6.4 kmh 30.02 in1016.6 mb 0.00 in0.0 mm 0.00 in0.0 mm 0.00 in0.0 mm
12:45 AM 60.6°F15.9°C 54.1°F12.3°C 79% 2.0 mph ESE3.2 kmh ESE 4.0 mph6.4 kmh 30.02 in1016.6 mb 0.00 in0.0 mm 0.00 in0.0 mm 0.00 in0.0 mm
12:30 AM 60.6°F15.9°C 54.4°F12.4°C 80% 2.0 mph ESE3.2 kmh ESE 4.0 mph6.4 kmh 30.02 in1016.6 mb 0.00 in0.0 mm 0.00 in0.0 mm 0.00 in0.0 mm
12:15 AM 60.6°F15.9°C 54.4°F12.4°C 80% 2.0 mph ESE3.2 kmh ESE 4.0 mph6.4 kmh 30.02 in1016.6 mb 0.00 in0.0 mm 0.00 in0.0 mm 0.00 in0.0 mm
12:00 AM 59.5°F15.3°C 54.4°F12.4°C 83% 1.0 mph ESE1.6 kmh ESE 3.0 mph4.8 kmh 30.02 in1016.6 mb 0.00 in0.0 mm 0.00 in0.0 mm 0.00 in0.0 mm